sensor_id;sensor_type;location;lat;lon;timestamp;temperature;humidity
16767;DHT22;8501;49.926;8.404;2023-02-21T00:02:06;8.60;99.90
16767;DHT22;8501;49.926;8.404;2023-02-21T00:04:50;8.60;99.90
16767;DHT22;8501;49.926;8.404;2023-02-21T00:07:34;8.50;99.90
16767;DHT22;8501;49.926;8.404;2023-02-21T00:10:18;8.50;99.90
16767;DHT22;8501;49.926;8.404;2023-02-21T00:13:02;8.40;99.90
16767;DHT22;8501;49.926;8.404;2023-02-21T00:15:46;8.40;99.90
16767;DHT22;8501;49.926;8.404;2023-02-21T00:18:34;8.40;99.90
16767;DHT22;8501;49.926;8.404;2023-02-21T00:21:19;8.40;99.90
16767;DHT22;8501;49.926;8.404;2023-02-21T00:24:03;8.30;99.90
16767;DHT22;8501;49.926;8.404;2023-02-21T00:26:47;8.30;99.90
16767;DHT22;8501;49.926;8.404;2023-02-21T00:29:31;8.40;99.90
16767;DHT22;8501;49.926;8.404;2023-02-21T00:32:15;8.30;99.90
16767;DHT22;8501;49.926;8.404;2023-02-21T00:34:59;8.30;99.90
16767;DHT22;8501;49.926;8.404;2023-02-21T00:37:44;8.30;99.90
16767;DHT22;8501;49.926;8.404;2023-02-21T00:40:28;8.30;99.90
16767;DHT22;8501;49.926;8.404;2023-02-21T00:43:12;8.30;99.90
16767;DHT22;8501;49.926;8.404;2023-02-21T00:45:56;8.30;99.90
16767;DHT22;8501;49.926;8.404;2023-02-21T00:48:40;8.20;99.90
16767;DHT22;8501;49.926;8.404;2023-02-21T00:51:24;8.30;99.90
16767;DHT22;8501;49.926;8.404;2023-02-21T00:54:08;8.30;99.90
16767;DHT22;8501;49.926;8.404;2023-02-21T00:56:52;8.30;99.90
16767;DHT22;8501;49.926;8.404;2023-02-21T00:59:36;8.30;99.90
16767;DHT22;8501;49.926;8.404;2023-02-21T01:02:20;8.30;99.90
16767;DHT22;8501;49.926;8.404;2023-02-21T01:05:04;8.20;99.90
16767;DHT22;8501;49.926;8.404;2023-02-21T01:07:48;8.20;99.90
16767;DHT22;8501;49.926;8.404;2023-02-21T01:10:32;8.20;99.90
16767;DHT22;8501;49.926;8.404;2023-02-21T01:13:16;8.20;99.90
16767;DHT22;8501;49.926;8.404;2023-02-21T01:16:00;8.20;99.90
16767;DHT22;8501;49.926;8.404;2023-02-21T01:18:44;8.20;99.90
16767;DHT22;8501;49.926;8.404;2023-02-21T01:21:28;8.10;99.90
16767;DHT22;8501;49.926;8.404;2023-02-21T01:24:14;8.10;99.90
16767;DHT22;8501;49.926;8.404;2023-02-21T01:26:59;8.10;99.90
16767;DHT22;8501;49.926;8.404;2023-02-21T01:29:44;8.10;99.90
16767;DHT22;8501;49.926;8.404;2023-02-21T01:32:28;8.10;99.90
16767;DHT22;8501;49.926;8.404;2023-02-21T01:35:12;8.10;99.90
16767;DHT22;8501;49.926;8.404;2023-02-21T01:37:56;8.00;99.90
16767;DHT22;8501;49.926;8.404;2023-02-21T01:40:41;8.00;99.90
16767;DHT22;8501;49.926;8.404;2023-02-21T01:43:26;8.00;99.90
16767;DHT22;8501;49.926;8.404;2023-02-21T01:46:13;7.90;99.90
16767;DHT22;8501;49.926;8.404;2023-02-21T01:49:01;7.90;99.90
16767;DHT22;8501;49.926;8.404;2023-02-21T01:51:46;7.90;99.90
16767;DHT22;8501;49.926;8.404;2023-02-21T01:57:20;8.00;99.90
16767;DHT22;8501;49.926;8.404;2023-02-21T02:00:08;7.80;99.90
16767;DHT22;8501;49.926;8.404;2023-02-21T02:03:01;7.80;99.90
16767;DHT22;8501;49.926;8.404;2023-02-21T02:05:59;7.70;99.90
16767;DHT22;8501;49.926;8.404;2023-02-21T02:08:44;7.70;99.90
16767;DHT22;8501;49.926;8.404;2023-02-21T02:26:10;7.50;99.90
16767;DHT22;8501;49.926;8.404;2023-02-21T02:46:14;6.60;99.90
16767;DHT22;8501;49.926;8.404;2023-02-21T02:48:47;6.60;99.90
16767;DHT22;8501;49.926;8.404;2023-02-21T02:51:15;6.70;99.90
16767;DHT22;8501;49.926;8.404;2023-02-21T02:53:41;6.70;99.90
16767;DHT22;8501;49.926;8.404;2023-02-21T02:56:09;6.60;99.90
16767;DHT22;8501;49.926;8.404;2023-02-21T03:09:40;6.40;99.90
16767;DHT22;8501;49.926;8.404;2023-02-21T03:14:53;6.30;99.90
16767;DHT22;8501;49.926;8.404;2023-02-21T03:17:23;6.20;99.90
16767;DHT22;8501;49.926;8.404;2023-02-21T03:19:51;6.30;99.90
16767;DHT22;8501;49.926;8.404;2023-02-21T03:22:21;6.30;99.90
16767;DHT22;8501;49.926;8.404;2023-02-21T03:24:48;6.30;99.90
16767;DHT22;8501;49.926;8.404;2023-02-21T03:27:16;6.30;99.90
16767;DHT22;8501;49.926;8.404;2023-02-21T03:29:42;6.30;99.90
16767;DHT22;8501;49.926;8.404;2023-02-21T03:32:20;6.30;99.90
16767;DHT22;8501;49.926;8.404;2023-02-21T03:34:46;6.30;99.90
16767;DHT22;8501;49.926;8.404;2023-02-21T03:39:54;6.30;99.90
16767;DHT22;8501;49.926;8.404;2023-02-21T03:42:20;6.30;99.90
16767;DHT22;8501;49.926;8.404;2023-02-21T03:44:45;6.20;99.90
16767;DHT22;8501;49.926;8.404;2023-02-21T03:47:11;6.10;99.90
16767;DHT22;8501;49.926;8.404;2023-02-21T03:49:36;6.00;99.90
16767;DHT22;8501;49.926;8.404;2023-02-21T03:52:02;6.10;99.90
16767;DHT22;8501;49.926;8.404;2023-02-21T03:54:28;6.20;99.90
16767;DHT22;8501;49.926;8.404;2023-02-21T03:56:53;6.30;99.90
16767;DHT22;8501;49.926;8.404;2023-02-21T03:59:19;6.30;99.90
16767;DHT22;8501;49.926;8.404;2023-02-21T04:01:44;6.30;99.90
16767;DHT22;8501;49.926;8.404;2023-02-21T04:04:10;6.10;99.90
16767;DHT22;8501;49.926;8.404;2023-02-21T04:06:35;6.00;99.90
16767;DHT22;8501;49.926;8.404;2023-02-21T04:09:01;5.90;99.90
16767;DHT22;8501;49.926;8.404;2023-02-21T04:11:27;6.00;99.90
16767;DHT22;8501;49.926;8.404;2023-02-21T04:13:52;5.90;99.90
16767;DHT22;8501;49.926;8.404;2023-02-21T04:16:18;5.90;99.90
16767;DHT22;8501;49.926;8.404;2023-02-21T04:18:43;5.80;99.90
16767;DHT22;8501;49.926;8.404;2023-02-21T04:21:09;5.90;99.90
16767;DHT22;8501;49.926;8.404;2023-02-21T04:23:35;6.00;99.90
16767;DHT22;8501;49.926;8.404;2023-02-21T04:26:00;6.00;99.90
16767;DHT22;8501;49.926;8.404;2023-02-21T04:28:26;6.10;99.90
16767;DHT22;8501;49.926;8.404;2023-02-21T04:30:51;6.10;99.90
16767;DHT22;8501;49.926;8.404;2023-02-21T04:33:17;6.00;99.90
16767;DHT22;8501;49.926;8.404;2023-02-21T04:35:43;6.00;99.90
16767;DHT22;8501;49.926;8.404;2023-02-21T04:38:08;5.80;99.90
16767;DHT22;8501;49.926;8.404;2023-02-21T04:40:34;5.70;99.90
16767;DHT22;8501;49.926;8.404;2023-02-21T04:42:59;5.70;99.90
16767;DHT22;8501;49.926;8.404;2023-02-21T04:45:25;5.60;99.90
16767;DHT22;8501;49.926;8.404;2023-02-21T04:47:50;5.70;99.90
16767;DHT22;8501;49.926;8.404;2023-02-21T04:50:16;5.70;99.90
16767;DHT22;8501;49.926;8.404;2023-02-21T04:52:42;5.70;99.90
16767;DHT22;8501;49.926;8.404;2023-02-21T04:55:08;5.50;99.90
16767;DHT22;8501;49.926;8.404;2023-02-21T04:57:33;5.30;99.90
16767;DHT22;8501;49.926;8.404;2023-02-21T04:59:59;5.30;99.90
16767;DHT22;8501;49.926;8.404;2023-02-21T05:02:26;5.30;99.90
16767;DHT22;8501;49.926;8.404;2023-02-21T05:04:52;5.40;99.90
16767;DHT22;8501;49.926;8.404;2023-02-21T05:07:17;5.30;99.90
16767;DHT22;8501;49.926;8.404;2023-02-21T05:09:43;5.30;99.90
16767;DHT22;8501;49.926;8.404;2023-02-21T05:12:08;5.50;99.90
16767;DHT22;8501;49.926;8.404;2023-02-21T05:14:39;5.40;99.90
16767;DHT22;8501;49.926;8.404;2023-02-21T05:17:05;5.30;99.90
16767;DHT22;8501;49.926;8.404;2023-02-21T05:19:31;5.30;99.90
16767;DHT22;8501;49.926;8.404;2023-02-21T05:21:59;5.30;99.90
16767;DHT22;8501;49.926;8.404;2023-02-21T05:24:27;5.30;99.90
16767;DHT22;8501;49.926;8.404;2023-02-21T05:26:53;5.20;99.90
16767;DHT22;8501;49.926;8.404;2023-02-21T05:29:19;5.30;99.90
16767;DHT22;8501;49.926;8.404;2023-02-21T05:31:46;5.30;99.90
16767;DHT22;8501;49.926;8.404;2023-02-21T05:34:12;5.40;99.90
16767;DHT22;8501;49.926;8.404;2023-02-21T05:36:38;5.40;99.90
16767;DHT22;8501;49.926;8.404;2023-02-21T05:39:06;5.50;99.90
16767;DHT22;8501;49.926;8.404;2023-02-21T05:41:32;5.40;99.90
16767;DHT22;8501;49.926;8.404;2023-02-21T05:43:58;5.30;99.90
16767;DHT22;8501;49.926;8.404;2023-02-21T05:46:32;5.20;99.90
16767;DHT22;8501;49.926;8.404;2023-02-21T05:48:59;5.10;99.90
16767;DHT22;8501;49.926;8.404;2023-02-21T05:51:26;5.10;99.90
16767;DHT22;8501;49.926;8.404;2023-02-21T05:53:52;5.10;99.90
16767;DHT22;8501;49.926;8.404;2023-02-21T05:56:19;5.00;99.90
16767;DHT22;8501;49.926;8.404;2023-02-21T05:58:45;5.00;99.90
16767;DHT22;8501;49.926;8.404;2023-02-21T06:01:11;5.00;99.90
16767;DHT22;8501;49.926;8.404;2023-02-21T06:03:37;4.90;99.90
16767;DHT22;8501;49.926;8.404;2023-02-21T06:06:02;4.90;99.90
16767;DHT22;8501;49.926;8.404;2023-02-21T06:08:28;4.90;99.90
16767;DHT22;8501;49.926;8.404;2023-02-21T06:10:54;4.80;99.90
16767;DHT22;8501;49.926;8.404;2023-02-21T06:13:19;4.80;99.90
16767;DHT22;8501;49.926;8.404;2023-02-21T06:15:45;4.90;99.90
16767;DHT22;8501;49.926;8.404;2023-02-21T06:18:14;5.00;99.90
16767;DHT22;8501;49.926;8.404;2023-02-21T06:20:40;5.00;99.90
16767;DHT22;8501;49.926;8.404;2023-02-21T06:23:06;5.00;99.90
16767;DHT22;8501;49.926;8.404;2023-02-21T06:25:32;4.90;99.90
16767;DHT22;8501;49.926;8.404;2023-02-21T06:27:57;4.80;99.90
16767;DHT22;8501;49.926;8.404;2023-02-21T06:30:24;4.80;99.90
16767;DHT22;8501;49.926;8.404;2023-02-21T06:32:49;4.70;99.90
16767;DHT22;8501;49.926;8.404;2023-02-21T06:35:15;4.80;99.90
16767;DHT22;8501;49.926;8.404;2023-02-21T06:37:42;4.80;99.90
16767;DHT22;8501;49.926;8.404;2023-02-21T06:40:08;4.70;99.90
16767;DHT22;8501;49.926;8.404;2023-02-21T06:42:34;4.70;99.90
16767;DHT22;8501;49.926;8.404;2023-02-21T06:45:01;4.80;99.90
16767;DHT22;8501;49.926;8.404;2023-02-21T06:47:27;4.80;99.90
16767;DHT22;8501;49.926;8.404;2023-02-21T06:49:52;4.80;99.90
16767;DHT22;8501;49.926;8.404;2023-02-21T06:52:18;4.80;99.90
16767;DHT22;8501;49.926;8.404;2023-02-21T06:54:43;4.90;99.90
16767;DHT22;8501;49.926;8.404;2023-02-21T06:57:10;5.00;99.90
16767;DHT22;8501;49.926;8.404;2023-02-21T06:59:35;5.00;99.90
16767;DHT22;8501;49.926;8.404;2023-02-21T07:02:01;5.00;99.90
16767;DHT22;8501;49.926;8.404;2023-02-21T07:04:29;5.00;99.90
16767;DHT22;8501;49.926;8.404;2023-02-21T07:06:54;5.00;99.90
16767;DHT22;8501;49.926;8.404;2023-02-21T07:09:20;5.00;99.90
16767;DHT22;8501;49.926;8.404;2023-02-21T07:11:45;5.10;99.90
16767;DHT22;8501;49.926;8.404;2023-02-21T07:14:11;5.10;99.90
16767;DHT22;8501;49.926;8.404;2023-02-21T07:16:37;5.20;99.90
16767;DHT22;8501;49.926;8.404;2023-02-21T07:19:03;5.20;99.90
16767;DHT22;8501;49.926;8.404;2023-02-21T07:21:28;5.20;99.90
16767;DHT22;8501;49.926;8.404;2023-02-21T07:23:54;5.30;99.90
16767;DHT22;8501;49.926;8.404;2023-02-21T07:26:20;5.30;99.90
16767;DHT22;8501;49.926;8.404;2023-02-21T07:28:48;5.20;99.90
16767;DHT22;8501;49.926;8.404;2023-02-21T07:31:14;5.20;99.90
16767;DHT22;8501;49.926;8.404;2023-02-21T07:33:40;5.10;99.90
16767;DHT22;8501;49.926;8.404;2023-02-21T07:36:05;5.10;99.90
16767;DHT22;8501;49.926;8.404;2023-02-21T07:38:31;5.30;99.90
16767;DHT22;8501;49.926;8.404;2023-02-21T07:40:58;5.30;99.90
16767;DHT22;8501;49.926;8.404;2023-02-21T07:43:29;5.30;99.90
16767;DHT22;8501;49.926;8.404;2023-02-21T07:45:55;5.50;99.90
16767;DHT22;8501;49.926;8.404;2023-02-21T07:48:21;5.60;99.90
16767;DHT22;8501;49.926;8.404;2023-02-21T07:50:48;5.60;99.90
16767;DHT22;8501;49.926;8.404;2023-02-21T07:53:14;5.60;99.90
16767;DHT22;8501;49.926;8.404;2023-02-21T07:55:40;5.70;99.90
16767;DHT22;8501;49.926;8.404;2023-02-21T07:58:06;5.80;99.90
16767;DHT22;8501;49.926;8.404;2023-02-21T08:00:32;5.90;99.90
16767;DHT22;8501;49.926;8.404;2023-02-21T08:02:58;6.10;99.90
16767;DHT22;8501;49.926;8.404;2023-02-21T08:05:24;6.20;99.90
16767;DHT22;8501;49.926;8.404;2023-02-21T08:07:50;6.20;99.90
16767;DHT22;8501;49.926;8.404;2023-02-21T08:10:21;6.30;99.90
16767;DHT22;8501;49.926;8.404;2023-02-21T08:12:47;6.40;99.90
16767;DHT22;8501;49.926;8.404;2023-02-21T08:15:13;6.50;99.90
16767;DHT22;8501;49.926;8.404;2023-02-21T08:17:38;6.50;99.90
16767;DHT22;8501;49.926;8.404;2023-02-21T08:20:04;6.60;99.90
16767;DHT22;8501;49.926;8.404;2023-02-21T08:22:31;6.70;99.90
16767;DHT22;8501;49.926;8.404;2023-02-21T08:24:56;6.80;99.90
16767;DHT22;8501;49.926;8.404;2023-02-21T08:27:22;6.80;99.90
16767;DHT22;8501;49.926;8.404;2023-02-21T08:29:50;6.90;99.90
16767;DHT22;8501;49.926;8.404;2023-02-21T08:32:17;7.00;99.90
16767;DHT22;8501;49.926;8.404;2023-02-21T08:34:46;7.10;99.90
16767;DHT22;8501;49.926;8.404;2023-02-21T08:37:12;7.20;99.90
16767;DHT22;8501;49.926;8.404;2023-02-21T08:39:49;7.30;99.90
16767;DHT22;8501;49.926;8.404;2023-02-21T08:42:15;7.40;99.90
16767;DHT22;8501;49.926;8.404;2023-02-21T08:44:45;7.50;99.90
16767;DHT22;8501;49.926;8.404;2023-02-21T08:47:12;7.50;99.90
16767;DHT22;8501;49.926;8.404;2023-02-21T08:49:38;7.50;99.90
16767;DHT22;8501;49.926;8.404;2023-02-21T08:52:06;7.70;99.90
16767;DHT22;8501;49.926;8.404;2023-02-21T08:54:32;7.70;99.90
16767;DHT22;8501;49.926;8.404;2023-02-21T08:56:58;7.80;99.90
16767;DHT22;8501;49.926;8.404;2023-02-21T08:59:25;7.90;99.90
16767;DHT22;8501;49.926;8.404;2023-02-21T09:01:52;8.00;99.90
16767;DHT22;8501;49.926;8.404;2023-02-21T09:04:18;8.00;99.90
16767;DHT22;8501;49.926;8.404;2023-02-21T09:06:43;8.00;99.90
16767;DHT22;8501;49.926;8.404;2023-02-21T09:09:09;8.10;99.90
16767;DHT22;8501;49.926;8.404;2023-02-21T09:11:34;8.20;99.90
16767;DHT22;8501;49.926;8.404;2023-02-21T09:14:00;8.30;99.90
16767;DHT22;8501;49.926;8.404;2023-02-21T09:16:25;8.30;99.90
16767;DHT22;8501;49.926;8.404;2023-02-21T09:18:59;8.40;99.90
16767;DHT22;8501;49.926;8.404;2023-02-21T09:21:26;8.50;99.90
16767;DHT22;8501;49.926;8.404;2023-02-21T09:23:53;8.50;99.90
16767;DHT22;8501;49.926;8.404;2023-02-21T09:26:19;8.60;99.90
16767;DHT22;8501;49.926;8.404;2023-02-21T09:28:48;8.70;99.90
16767;DHT22;8501;49.926;8.404;2023-02-21T09:31:14;8.70;99.90
16767;DHT22;8501;49.926;8.404;2023-02-21T09:33:39;8.80;99.90
16767;DHT22;8501;49.926;8.404;2023-02-21T09:36:06;8.80;99.90
16767;DHT22;8501;49.926;8.404;2023-02-21T09:38:32;8.90;99.90
16767;DHT22;8501;49.926;8.404;2023-02-21T09:41:00;9.00;99.90
16767;DHT22;8501;49.926;8.404;2023-02-21T09:43:37;9.20;99.90
16767;DHT22;8501;49.926;8.404;2023-02-21T09:46:12;9.20;99.90
16767;DHT22;8501;49.926;8.404;2023-02-21T09:48:39;9.20;99.90
16767;DHT22;8501;49.926;8.404;2023-02-21T09:51:08;9.20;99.90
16767;DHT22;8501;49.926;8.404;2023-02-21T09:53:37;9.20;99.90
16767;DHT22;8501;49.926;8.404;2023-02-21T09:56:09;9.30;99.90
16767;DHT22;8501;49.926;8.404;2023-02-21T09:58:40;9.30;99.90
16767;DHT22;8501;49.926;8.404;2023-02-21T10:01:24;9.30;99.90
16767;DHT22;8501;49.926;8.404;2023-02-21T10:04:51;9.40;99.90
16767;DHT22;8501;49.926;8.404;2023-02-21T10:07:07;9.50;99.90
16767;DHT22;8501;49.926;8.404;2023-02-21T10:09:39;9.60;99.90
16767;DHT22;8501;49.926;8.404;2023-02-21T10:12:21;9.70;99.90
16767;DHT22;8501;49.926;8.404;2023-02-21T10:17:40;9.80;99.90
16767;DHT22;8501;49.926;8.404;2023-02-21T10:20:13;10.00;99.90
16767;DHT22;8501;49.926;8.404;2023-02-21T10:22:43;10.10;99.90
16767;DHT22;8501;49.926;8.404;2023-02-21T10:25:31;10.20;99.90
16767;DHT22;8501;49.926;8.404;2023-02-21T10:27:58;10.30;99.90
16767;DHT22;8501;49.926;8.404;2023-02-21T10:32:54;10.40;99.90
16767;DHT22;8501;49.926;8.404;2023-02-21T10:35:20;10.50;99.90
16767;DHT22;8501;49.926;8.404;2023-02-21T10:37:55;10.50;99.90
16767;DHT22;8501;49.926;8.404;2023-02-21T10:43:08;10.60;99.90
16767;DHT22;8501;49.926;8.404;2023-02-21T10:46:01;10.80;99.90
16767;DHT22;8501;49.926;8.404;2023-02-21T10:48:34;10.90;99.90
16767;DHT22;8501;49.926;8.404;2023-02-21T10:53:38;11.00;99.90
16767;DHT22;8501;49.926;8.404;2023-02-21T10:56:12;11.00;99.90
16767;DHT22;8501;49.926;8.404;2023-02-21T10:58:58;11.10;99.90
16767;DHT22;8501;49.926;8.404;2023-02-21T11:04:05;11.20;99.90
16767;DHT22;8501;49.926;8.404;2023-02-21T11:06:32;11.30;99.90
16767;DHT22;8501;49.926;8.404;2023-02-21T11:08:59;11.40;99.90
16767;DHT22;8501;49.926;8.404;2023-02-21T11:11:37;11.40;99.90
16767;DHT22;8501;49.926;8.404;2023-02-21T11:16:43;11.40;99.90
16767;DHT22;8501;49.926;8.404;2023-02-21T11:19:12;11.50;99.90
16767;DHT22;8501;49.926;8.404;2023-02-21T11:21:39;11.60;99.90
16767;DHT22;8501;49.926;8.404;2023-02-21T11:24:06;11.70;99.90
16767;DHT22;8501;49.926;8.404;2023-02-21T11:26:52;11.90;99.90
16767;DHT22;8501;49.926;8.404;2023-02-21T11:29:20;11.80;99.90
16767;DHT22;8501;49.926;8.404;2023-02-21T11:31:48;11.90;99.90
16767;DHT22;8501;49.926;8.404;2023-02-21T11:34:15;11.90;99.90
16767;DHT22;8501;49.926;8.404;2023-02-21T11:36:43;11.90;99.90
16767;DHT22;8501;49.926;8.404;2023-02-21T11:39:24;12.00;99.90
16767;DHT22;8501;49.926;8.404;2023-02-21T11:47:24;12.20;99.90
16767;DHT22;8501;49.926;8.404;2023-02-21T11:53:03;12.40;99.90
16767;DHT22;8501;49.926;8.404;2023-02-21T11:55:31;12.40;99.90
16767;DHT22;8501;49.926;8.404;2023-02-21T12:00:45;12.50;99.90
16767;DHT22;8501;49.926;8.404;2023-02-21T12:09:11;12.70;99.90
16767;DHT22;8501;49.926;8.404;2023-02-21T12:14:51;12.70;99.90
16767;DHT22;8501;49.926;8.404;2023-02-21T12:28:46;13.00;99.90
16767;DHT22;8501;49.926;8.404;2023-02-21T12:34:36;13.00;99.90
16767;DHT22;8501;49.926;8.404;2023-02-21T12:40:11;13.30;99.90
16767;DHT22;8501;49.926;8.404;2023-02-21T12:50:41;13.60;99.90
16767;DHT22;8501;49.926;8.404;2023-02-21T12:53:17;13.70;99.90
16767;DHT22;8501;49.926;8.404;2023-02-21T12:55:53;13.70;99.90
16767;DHT22;8501;49.926;8.404;2023-02-21T13:00:59;13.70;99.90
16767;DHT22;8501;49.926;8.404;2023-02-21T13:08:52;13.90;99.90
16767;DHT22;8501;49.926;8.404;2023-02-21T13:11:52;13.90;99.90
16767;DHT22;8501;49.926;8.404;2023-02-21T13:14:59;14.00;99.90
16767;DHT22;8501;49.926;8.404;2023-02-21T13:17:25;13.90;99.90
16767;DHT22;8501;49.926;8.404;2023-02-21T13:20:00;14.00;99.90
16767;DHT22;8501;49.926;8.404;2023-02-21T13:22:47;14.00;99.90
16767;DHT22;8501;49.926;8.404;2023-02-21T13:25:36;14.10;99.90
16767;DHT22;8501;49.926;8.404;2023-02-21T13:28:22;14.20;99.90
16767;DHT22;8501;49.926;8.404;2023-02-21T13:30:56;14.30;99.90
16767;DHT22;8501;49.926;8.404;2023-02-21T13:36:26;14.30;99.90
16767;DHT22;8501;49.926;8.404;2023-02-21T13:39:09;14.40;99.90
16767;DHT22;8501;49.926;8.404;2023-02-21T13:41:39;14.40;99.90
16767;DHT22;8501;49.926;8.404;2023-02-21T13:44:08;14.30;99.90
16767;DHT22;8501;49.926;8.404;2023-02-21T14:13:48;14.80;99.90
16767;DHT22;8501;49.926;8.404;2023-02-21T14:16:32;14.80;99.90
16767;DHT22;8501;49.926;8.404;2023-02-21T14:19:09;14.80;99.90
16767;DHT22;8501;49.926;8.404;2023-02-21T14:21:42;14.90;99.90
16767;DHT22;8501;49.926;8.404;2023-02-21T14:29:42;15.80;99.90
16767;DHT22;8501;49.926;8.404;2023-02-21T14:37:15;18.00;99.90
16767;DHT22;8501;49.926;8.404;2023-02-21T14:39:45;18.60;99.90
16767;DHT22;8501;49.926;8.404;2023-02-21T14:47:58;19.90;99.90
16767;DHT22;8501;49.926;8.404;2023-02-21T14:50:49;20.20;99.90
16767;DHT22;8501;49.926;8.404;2023-02-21T15:00:01;20.80;99.90
16767;DHT22;8501;49.926;8.404;2023-02-21T15:02:28;21.20;99.90
16767;DHT22;8501;49.926;8.404;2023-02-21T15:05:17;21.30;99.90
16767;DHT22;8501;49.926;8.404;2023-02-21T15:10:31;20.90;99.90
16767;DHT22;8501;49.926;8.404;2023-02-21T15:13:00;20.90;99.90
16767;DHT22;8501;49.926;8.404;2023-02-21T15:15:45;20.90;99.90
16767;DHT22;8501;49.926;8.404;2023-02-21T15:18:24;20.70;99.90
16767;DHT22;8501;49.926;8.404;2023-02-21T15:23:39;20.60;99.90
16767;DHT22;8501;49.926;8.404;2023-02-21T15:26:31;20.30;99.90
16767;DHT22;8501;49.926;8.404;2023-02-21T15:29:14;20.10;99.90
16767;DHT22;8501;49.926;8.404;2023-02-21T15:31:48;19.80;99.90
16767;DHT22;8501;49.926;8.404;2023-02-21T15:34:17;19.10;99.90
16767;DHT22;8501;49.926;8.404;2023-02-21T15:36:45;18.70;99.90
16767;DHT22;8501;49.926;8.404;2023-02-21T15:41:46;17.90;99.90
16767;DHT22;8501;49.926;8.404;2023-02-21T15:44:31;17.60;99.90
16767;DHT22;8501;49.926;8.404;2023-02-21T15:47:08;17.40;99.90
16767;DHT22;8501;49.926;8.404;2023-02-21T15:49:44;17.20;99.90
16767;DHT22;8501;49.926;8.404;2023-02-21T15:57:46;16.50;99.90
16767;DHT22;8501;49.926;8.404;2023-02-21T16:00:27;16.30;99.90
16767;DHT22;8501;49.926;8.404;2023-02-21T16:03:32;16.10;99.90
16767;DHT22;8501;49.926;8.404;2023-02-21T16:11:24;15.90;99.90
16767;DHT22;8501;49.926;8.404;2023-02-21T16:13:50;15.80;99.90
16767;DHT22;8501;49.926;8.404;2023-02-21T16:16:15;15.80;99.90
16767;DHT22;8501;49.926;8.404;2023-02-21T16:18:41;15.80;99.90
16767;DHT22;8501;49.926;8.404;2023-02-21T16:21:27;15.70;99.90
16767;DHT22;8501;49.926;8.404;2023-02-21T16:23:53;15.60;99.90
16767;DHT22;8501;49.926;8.404;2023-02-21T16:26:24;15.60;99.90
16767;DHT22;8501;49.926;8.404;2023-02-21T16:28:54;15.50;99.90
16767;DHT22;8501;49.926;8.404;2023-02-21T16:31:32;15.40;99.90
16767;DHT22;8501;49.926;8.404;2023-02-21T16:33:58;15.30;99.90
16767;DHT22;8501;49.926;8.404;2023-02-21T16:36:31;15.20;99.90
16767;DHT22;8501;49.926;8.404;2023-02-21T16:38:57;15.10;99.90
16767;DHT22;8501;49.926;8.404;2023-02-21T16:41:23;15.00;99.90
16767;DHT22;8501;49.926;8.404;2023-02-21T16:43:49;14.90;99.90
16767;DHT22;8501;49.926;8.404;2023-02-21T16:46:23;14.90;99.90
16767;DHT22;8501;49.926;8.404;2023-02-21T16:48:49;14.90;99.90
16767;DHT22;8501;49.926;8.404;2023-02-21T16:51:16;14.90;99.90
16767;DHT22;8501;49.926;8.404;2023-02-21T16:53:42;14.80;99.90
16767;DHT22;8501;49.926;8.404;2023-02-21T16:56:10;14.70;99.90
16767;DHT22;8501;49.926;8.404;2023-02-21T16:58:42;14.60;99.90
16767;DHT22;8501;49.926;8.404;2023-02-21T17:01:28;14.40;99.90
16767;DHT22;8501;49.926;8.404;2023-02-21T17:03:54;14.30;99.90
16767;DHT22;8501;49.926;8.404;2023-02-21T17:06:22;14.30;99.90
16767;DHT22;8501;49.926;8.404;2023-02-21T17:08:48;14.10;99.90
16767;DHT22;8501;49.926;8.404;2023-02-21T17:11:14;14.10;99.90
16767;DHT22;8501;49.926;8.404;2023-02-21T17:13:39;14.00;99.90
16767;DHT22;8501;49.926;8.404;2023-02-21T17:16:05;13.90;99.90
16767;DHT22;8501;49.926;8.404;2023-02-21T17:18:31;13.80;99.90
16767;DHT22;8501;49.926;8.404;2023-02-21T17:20:58;13.70;99.90
16767;DHT22;8501;49.926;8.404;2023-02-21T17:23:24;13.80;99.90
16767;DHT22;8501;49.926;8.404;2023-02-21T17:25:50;13.70;99.90
16767;DHT22;8501;49.926;8.404;2023-02-21T17:28:16;13.70;99.90
16767;DHT22;8501;49.926;8.404;2023-02-21T17:30:42;13.70;99.90
16767;DHT22;8501;49.926;8.404;2023-02-21T17:33:07;13.70;99.90
16767;DHT22;8501;49.926;8.404;2023-02-21T17:35:35;13.60;99.90
16767;DHT22;8501;49.926;8.404;2023-02-21T17:38:01;13.50;99.90
16767;DHT22;8501;49.926;8.404;2023-02-21T17:40:27;13.50;99.90
16767;DHT22;8501;49.926;8.404;2023-02-21T17:42:53;13.40;99.90
16767;DHT22;8501;49.926;8.404;2023-02-21T17:45:20;13.30;99.90
16767;DHT22;8501;49.926;8.404;2023-02-21T17:47:50;13.20;99.90
16767;DHT22;8501;49.926;8.404;2023-02-21T17:50:17;13.20;99.90
16767;DHT22;8501;49.926;8.404;2023-02-21T17:52:43;13.00;99.90
16767;DHT22;8501;49.926;8.404;2023-02-21T17:55:15;12.90;99.90
16767;DHT22;8501;49.926;8.404;2023-02-21T17:57:41;12.90;99.90
16767;DHT22;8501;49.926;8.404;2023-02-21T18:00:11;13.00;99.90
16767;DHT22;8501;49.926;8.404;2023-02-21T18:02:39;12.90;99.90
16767;DHT22;8501;49.926;8.404;2023-02-21T18:05:05;12.80;99.90
16767;DHT22;8501;49.926;8.404;2023-02-21T18:07:32;12.80;99.90
16767;DHT22;8501;49.926;8.404;2023-02-21T18:10:00;12.70;99.90
16767;DHT22;8501;49.926;8.404;2023-02-21T18:12:28;12.60;99.90
16767;DHT22;8501;49.926;8.404;2023-02-21T18:14:53;12.50;99.90
16767;DHT22;8501;49.926;8.404;2023-02-21T18:17:19;12.40;99.90
16767;DHT22;8501;49.926;8.404;2023-02-21T18:19:45;12.40;99.90
16767;DHT22;8501;49.926;8.404;2023-02-21T18:22:10;12.40;99.90
16767;DHT22;8501;49.926;8.404;2023-02-21T18:24:36;12.40;99.90
16767;DHT22;8501;49.926;8.404;2023-02-21T18:27:01;12.30;99.90
16767;DHT22;8501;49.926;8.404;2023-02-21T18:29:27;12.20;99.90
16767;DHT22;8501;49.926;8.404;2023-02-21T18:31:54;12.20;99.90
16767;DHT22;8501;49.926;8.404;2023-02-21T18:34:20;12.10;99.90
16767;DHT22;8501;49.926;8.404;2023-02-21T18:36:51;12.10;99.90
16767;DHT22;8501;49.926;8.404;2023-02-21T18:39:18;12.00;99.90
16767;DHT22;8501;49.926;8.404;2023-02-21T18:44:18;11.80;99.90
16767;DHT22;8501;49.926;8.404;2023-02-21T18:46:51;11.70;99.90
16767;DHT22;8501;49.926;8.404;2023-02-21T18:49:19;11.70;99.90
16767;DHT22;8501;49.926;8.404;2023-02-21T18:51:45;11.70;99.90
16767;DHT22;8501;49.926;8.404;2023-02-21T18:54:11;11.90;99.90
16767;DHT22;8501;49.926;8.404;2023-02-21T18:56:36;11.70;99.90
16767;DHT22;8501;49.926;8.404;2023-02-21T18:59:02;11.70;99.90
16767;DHT22;8501;49.926;8.404;2023-02-21T19:01:27;11.60;99.90
16767;DHT22;8501;49.926;8.404;2023-02-21T19:03:53;11.50;99.90
16767;DHT22;8501;49.926;8.404;2023-02-21T19:06:20;11.50;99.90
16767;DHT22;8501;49.926;8.404;2023-02-21T19:08:46;11.50;99.90
16767;DHT22;8501;49.926;8.404;2023-02-21T19:11:15;11.50;99.90
16767;DHT22;8501;49.926;8.404;2023-02-21T19:13:41;11.40;99.90
16767;DHT22;8501;49.926;8.404;2023-02-21T19:16:12;11.30;99.90
16767;DHT22;8501;49.926;8.404;2023-02-21T19:18:38;11.30;99.90
16767;DHT22;8501;49.926;8.404;2023-02-21T19:21:03;11.30;99.90
16767;DHT22;8501;49.926;8.404;2023-02-21T19:23:29;11.20;99.90
16767;DHT22;8501;49.926;8.404;2023-02-21T19:25:54;11.10;99.90
16767;DHT22;8501;49.926;8.404;2023-02-21T19:28:20;10.90;99.90
16767;DHT22;8501;49.926;8.404;2023-02-21T19:30:48;10.90;99.90
16767;DHT22;8501;49.926;8.404;2023-02-21T19:33:14;10.80;99.90
16767;DHT22;8501;49.926;8.404;2023-02-21T19:35:39;10.70;99.90